createdAt,value
2022-11-20T00:01:37.548Z,44.83
2022-11-20T00:06:40.334Z,44.75
2022-11-20T00:11:43.086Z,44.93
2022-11-20T00:16:47.318Z,44.95
2022-11-20T00:21:52.283Z,45.15
2022-11-20T00:26:55.166Z,45.04
2022-11-20T00:31:59.537Z,45.19
2022-11-20T00:37:02.315Z,45.29
2022-11-20T00:42:05.376Z,45.07
2022-11-20T00:47:09.669Z,45.32
2022-11-20T00:52:12.451Z,45.37
2022-11-20T00:57:15.273Z,45.38
2022-11-20T01:02:19.492Z,45.68
2022-11-20T01:07:22.406Z,45.30
2022-11-20T01:12:25.200Z,45.36
2022-11-20T01:17:29.286Z,45.63
2022-11-20T01:22:32.025Z,45.52
2022-11-20T01:27:34.925Z,45.42
2022-11-20T01:32:38.999Z,45.53
2022-11-20T01:37:41.763Z,45.49
2022-11-20T01:43:04.997Z,45.72
2022-11-20T01:48:09.192Z,45.78
2022-11-20T01:53:13.260Z,45.72
2022-11-20T01:58:16.294Z,45.86
2022-11-20T02:03:20.768Z,46.05
2022-11-20T02:08:23.583Z,46.00
2022-11-20T02:13:43.658Z,45.97
2022-11-20T02:18:47.774Z,46.18
2022-11-20T02:24:03.787Z,46.36
2022-11-20T02:29:06.544Z,46.63
2022-11-20T02:34:09.314Z,46.65
2022-11-20T02:39:14.100Z,46.53
2022-11-20T02:44:16.852Z,46.80
2022-11-20T02:49:20.199Z,46.86
2022-11-20T02:54:24.764Z,46.65
2022-11-20T02:59:27.558Z,46.38
2022-11-20T03:04:30.426Z,46.48
2022-11-20T03:09:34.606Z,47.06
2022-11-20T03:14:37.366Z,47.18
2022-11-20T03:19:40.146Z,47.27
2022-11-20T03:24:44.332Z,47.71
2022-11-20T03:29:47.150Z,48.33
2022-11-20T03:34:49.940Z,48.72
2022-11-20T03:39:54.067Z,48.88
2022-11-20T03:44:57.033Z,49.15
2022-11-20T03:50:00.026Z,49.24
2022-11-20T03:55:04.377Z,49.37
2022-11-20T04:00:08.591Z,49.55
2022-11-20T04:05:11.361Z,50.09
2022-11-20T04:10:15.602Z,49.83
2022-11-20T04:15:19.213Z,49.87
2022-11-20T04:20:22.337Z,50.22
2022-11-20T04:25:26.522Z,50.41
2022-11-20T04:30:29.649Z,50.49
2022-11-20T04:35:32.445Z,50.38
2022-11-20T04:40:36.577Z,50.60
2022-11-20T04:45:39.564Z,50.69
2022-11-20T04:50:42.399Z,50.71
2022-11-20T04:55:46.712Z,50.92
2022-11-20T05:00:52.640Z,51.26
2022-11-20T05:05:55.493Z,51.49
2022-11-20T05:11:03.213Z,51.68
2022-11-20T05:16:06.937Z,51.86
2022-11-20T05:21:10.250Z,52.31
2022-11-20T05:26:16.594Z,52.34
2022-11-20T05:31:26.210Z,52.59
2022-11-20T05:36:29.725Z,53.07
2022-11-20T05:41:34.833Z,52.68
2022-11-20T05:46:37.816Z,52.43
2022-11-20T05:51:40.731Z,53.20
2022-11-20T05:56:45.051Z,53.28
2022-11-20T06:01:47.812Z,52.91
2022-11-20T06:06:50.591Z,53.10
2022-11-20T06:11:54.689Z,53.33
2022-11-20T06:16:57.456Z,53.35
2022-11-20T06:22:00.212Z,53.18
2022-11-20T06:27:04.364Z,53.48
2022-11-20T06:32:07.259Z,53.58
2022-11-20T06:37:10.105Z,53.15
2022-11-20T06:42:14.299Z,53.12
2022-11-20T06:47:17.100Z,52.96
2022-11-20T06:52:20.164Z,53.14
2022-11-20T06:57:24.313Z,53.28
2022-11-20T07:02:27.124Z,53.36
2022-11-20T07:07:29.888Z,53.18
2022-11-20T07:12:34.012Z,53.33
2022-11-20T07:17:36.825Z,53.13
2022-11-20T07:22:39.630Z,53.14
2022-11-20T07:27:43.753Z,52.68
2022-11-20T07:32:48.485Z,52.88
2022-11-20T07:37:51.316Z,52.76
2022-11-20T07:42:56.091Z,53.12
2022-11-20T07:47:59.083Z,53.47
2022-11-20T07:53:05.513Z,53.88
2022-11-20T07:58:09.625Z,53.89
2022-11-20T08:03:12.360Z,53.96
2022-11-20T08:08:15.118Z,53.98
2022-11-20T08:13:35.740Z,53.87
2022-11-20T08:18:38.539Z,53.67
2022-11-20T08:23:41.272Z,53.89
2022-11-20T08:28:46.149Z,54.23
2022-11-20T08:33:48.900Z,54.73
2022-11-20T08:38:52.108Z,55.17
2022-11-20T08:43:57.931Z,41.46
2022-11-20T08:49:00.882Z,41.55
2022-11-20T08:54:04.068Z,39.19
2022-11-20T08:59:44.102Z,48.60
2022-11-20T09:04:30.919Z,44.70
2022-11-20T09:09:33.660Z,44.91
2022-11-20T09:14:37.727Z,45.53
2022-11-20T09:19:40.480Z,45.96
2022-11-20T09:24:43.732Z,46.11
2022-11-20T09:29:47.831Z,46.50
2022-11-20T09:34:50.582Z,47.19
2022-11-20T09:39:53.372Z,47.44
2022-11-20T09:45:04.416Z,47.93
2022-11-20T09:50:21.540Z,47.89
2022-11-20T09:55:24.395Z,47.83
2022-11-20T10:00:28.581Z,47.95
2022-11-20T10:05:33.569Z,48.12
2022-11-20T10:10:42.699Z,47.79
2022-11-20T10:15:55.448Z,47.46
2022-11-20T10:21:00.432Z,47.39
2022-11-20T10:26:04.349Z,46.96
2022-11-20T10:31:10.699Z,46.79
2022-11-20T10:36:16.890Z,46.61
2022-11-20T10:41:30.886Z,46.22
2022-11-20T10:46:40.223Z,46.17
2022-11-20T10:51:49.712Z,46.08
2022-11-20T10:56:53.241Z,45.97
2022-11-20T11:01:57.347Z,45.81
2022-11-20T11:07:04.952Z,46.17
2022-11-20T11:12:09.334Z,46.45
2022-11-20T11:17:27.869Z,46.02
2022-11-20T11:22:31.070Z,45.80
2022-11-20T11:27:34.271Z,46.13
2022-11-20T11:32:38.407Z,46.35
2022-11-20T11:37:41.239Z,45.83
2022-11-20T11:42:44.194Z,45.58
2022-11-20T11:47:49.275Z,45.46
2022-11-20T11:53:07.712Z,45.48
2022-11-20T11:58:20.481Z,45.44
2022-11-20T12:03:27.522Z,45.85
2022-11-20T12:08:33.571Z,45.54
2022-11-20T12:13:41.948Z,45.81
2022-11-20T12:18:46.432Z,45.70
2022-11-20T12:24:09.008Z,45.89
2022-11-20T12:29:13.653Z,45.76
2022-11-20T12:34:32.050Z,45.74
2022-11-20T12:39:36.865Z,45.50
2022-11-20T12:45:05.616Z,45.03
2022-11-20T12:50:12.541Z,45.06
2022-11-20T12:55:18.735Z,44.98
2022-11-20T13:00:22.219Z,44.54
2022-11-20T13:05:31.578Z,44.38
2022-11-20T13:10:37.575Z,44.45
2022-11-20T13:15:49.782Z,43.89
2022-11-20T13:20:54.159Z,43.81
2022-11-20T13:26:07.644Z,43.55
2022-11-20T13:31:12.131Z,43.27
2022-11-20T13:36:24.543Z,43.08
2022-11-20T13:41:32.234Z,42.92
2022-11-20T13:46:39.025Z,43.23
2022-11-20T13:51:45.629Z,43.29
2022-11-20T13:56:54.073Z,43.37
2022-11-20T14:01:56.843Z,43.40
2022-11-20T14:07:01.010Z,43.20
2022-11-20T14:12:04.719Z,42.90
2022-11-20T14:17:08.353Z,42.39
2022-11-20T14:22:20.968Z,42.06
2022-11-20T14:27:23.842Z,41.64
2022-11-20T14:32:28.640Z,41.91
2022-11-20T14:37:34.707Z,42.51
2022-11-20T14:42:38.432Z,42.53
2022-11-20T14:47:41.184Z,42.68
2022-11-20T14:52:53.666Z,42.77
2022-11-20T14:57:57.138Z,42.70
2022-11-20T15:02:59.884Z,42.82
2022-11-20T15:08:13.050Z,42.93
2022-11-20T15:13:17.034Z,42.91
2022-11-20T15:18:20.653Z,42.92
2022-11-20T15:23:25.149Z,43.09
2022-11-20T15:28:31.255Z,43.20
2022-11-20T15:33:34.266Z,42.92
2022-11-20T15:38:38.681Z,42.93
2022-11-20T15:43:41.564Z,42.63
2022-11-20T15:48:48.344Z,42.64
2022-11-20T15:58:55.734Z,42.46
2022-11-20T16:03:58.479Z,42.27
2022-11-20T16:09:02.619Z,42.15
2022-11-20T16:14:22.864Z,42.07
2022-11-20T16:19:25.849Z,42.01
2022-11-20T16:24:30.041Z,41.89
2022-11-20T16:29:32.835Z,41.79
2022-11-20T16:34:35.580Z,41.50
2022-11-20T16:39:39.721Z,41.75
2022-11-20T16:44:42.502Z,41.52
2022-11-20T16:49:45.250Z,41.49
2022-11-20T16:54:49.419Z,41.19
2022-11-20T16:59:52.192Z,41.32
2022-11-20T17:04:54.952Z,41.11
2022-11-20T17:09:59.103Z,41.09
2022-11-20T17:15:01.893Z,40.96
2022-11-20T17:20:05.191Z,40.94
2022-11-20T17:25:09.983Z,40.71
2022-11-20T17:30:13.143Z,39.78
2022-11-20T17:35:16.085Z,39.83
2022-11-20T17:40:24.534Z,39.90
2022-11-20T17:45:30.069Z,39.69
2022-11-20T17:50:32.937Z,39.86
2022-11-20T17:55:55.925Z,39.82
2022-11-20T18:01:05.926Z,39.77
2022-11-20T18:06:11.992Z,39.91
2022-11-20T18:11:17.087Z,39.97
2022-11-20T18:16:19.839Z,39.99
2022-11-20T18:21:22.710Z,40.08
2022-11-20T18:26:27.048Z,40.38
2022-11-20T18:31:29.850Z,39.91
2022-11-20T18:36:33.381Z,40.47
2022-11-20T18:41:54.908Z,40.41
2022-11-20T18:46:57.689Z,40.48
2022-11-20T18:52:00.481Z,40.45
2022-11-20T18:57:04.880Z,40.69
2022-11-20T19:02:07.825Z,40.75
2022-11-20T19:07:12.264Z,40.80
2022-11-20T19:12:16.744Z,40.71
2022-11-20T19:17:19.745Z,40.73
2022-11-20T19:22:22.781Z,41.13
2022-11-20T19:27:27.360Z,41.27
2022-11-20T19:32:32.609Z,41.76
2022-11-20T19:37:35.657Z,42.07
2022-11-20T19:42:40.146Z,42.36
2022-11-20T19:53:07.354Z,42.36
2022-11-20T19:58:11.665Z,42.70
2022-11-20T20:03:14.446Z,42.58
2022-11-20T20:08:17.301Z,42.89
2022-11-20T20:13:21.424Z,42.90
2022-11-20T20:18:24.180Z,43.00
2022-11-20T20:23:27.020Z,42.84
2022-11-20T20:28:31.245Z,43.00
2022-11-20T20:33:34.310Z,43.19
2022-11-20T20:38:37.436Z,43.34
2022-11-20T20:43:58.851Z,43.24
2022-11-20T20:49:01.634Z,43.16
2022-11-20T20:54:04.465Z,43.02
2022-11-20T20:59:08.603Z,43.11
2022-11-20T21:04:11.844Z,42.97
2022-11-20T21:09:14.861Z,42.79
2022-11-20T21:14:19.450Z,42.88
2022-11-20T21:19:22.269Z,42.63
2022-11-20T21:24:25.465Z,43.13
2022-11-20T21:29:31.073Z,43.16
2022-11-20T21:34:33.868Z,43.25
2022-11-20T21:39:50.476Z,43.27
2022-11-20T21:44:54.698Z,43.23
2022-11-20T21:49:57.461Z,43.29
2022-11-20T21:55:00.291Z,43.30
2022-11-20T22:00:05.307Z,43.27
2022-11-20T22:05:13.036Z,43.22
2022-11-20T22:10:18.673Z,43.29
2022-11-20T22:15:45.756Z,43.37
2022-11-20T22:20:45.825Z,43.34
2022-11-20T22:25:48.704Z,43.37
2022-11-20T22:30:52.915Z,43.38
2022-11-20T22:36:01.168Z,43.42
2022-11-20T22:41:04.502Z,43.57
2022-11-20T22:46:09.372Z,43.49
2022-11-20T22:51:13.768Z,43.46
2022-11-20T22:56:16.775Z,43.58
2022-11-20T23:01:21.559Z,43.49
2022-11-20T23:06:24.688Z,43.47
2022-11-20T23:11:28.449Z,43.57
2022-11-20T23:16:32.736Z,43.67
2022-11-20T23:21:35.982Z,43.50
2022-11-20T23:26:39.824Z,43.76
2022-11-20T23:31:44.280Z,43.86
2022-11-20T23:36:47.022Z,44.15
2022-11-20T23:41:49.775Z,44.24
2022-11-20T23:46:53.871Z,44.43
2022-11-20T23:51:56.807Z,44.78
2022-11-20T23:56:59.937Z,44.97
